sensor_id;sensor_type;location;lat;lon;timestamp;pressure;altitude;pressure_sealevel;temperature;humidity
60228;BME280;46091;46.512;6.626;2022-12-29T09:52:58;97008.53;;;11.37;58.20
60228;BME280;46091;46.512;6.626;2022-12-29T09:55:05;97011.59;;;11.69;57.66
60228;BME280;46091;46.512;6.626;2022-12-29T09:57:16;97014.63;;;11.94;57.21
60228;BME280;46091;46.512;6.626;2022-12-29T09:59:25;97017.56;;;12.12;57.00
60228;BME280;46091;46.512;6.626;2022-12-29T10:01:32;97016.59;;;12.27;56.95
60228;BME280;46091;46.512;6.626;2022-12-29T10:03:44;97016.66;;;12.40;56.55
60228;BME280;46091;46.512;6.626;2022-12-29T10:05:52;97022.81;;;12.47;56.69
60228;BME280;46091;46.512;6.626;2022-12-29T10:08:11;97024.63;;;12.53;56.41
60228;BME280;46091;46.512;6.626;2022-12-29T10:10:26;97027.13;;;12.61;56.52
60228;BME280;46091;46.512;6.626;2022-12-29T10:12:45;97026.50;;;12.66;56.61
60228;BME280;46091;46.512;6.626;2022-12-29T10:15:02;97011.22;;;12.74;56.34
60228;BME280;46091;46.512;6.626;2022-12-29T10:17:16;96982.88;;;12.81;56.18
60228;BME280;46091;46.512;6.626;2022-12-29T10:19:39;96980.03;;;12.83;56.15
60228;BME280;46091;46.512;6.626;2022-12-29T10:21:59;96987.56;;;12.86;56.45
60228;BME280;46091;46.512;6.626;2022-12-29T10:24:11;96995.75;;;12.85;56.25
60228;BME280;46091;46.512;6.626;2022-12-29T10:26:17;96982.28;;;12.86;56.51
60228;BME280;46091;46.512;6.626;2022-12-29T10:28:23;96977.38;;;12.90;56.45
60228;BME280;46091;46.512;6.626;2022-12-29T10:30:27;96972.88;;;12.90;56.16
60228;BME280;46091;46.512;6.626;2022-12-29T10:32:34;96978.00;;;12.92;56.13
60228;BME280;46091;46.512;6.626;2022-12-29T10:34:44;96973.31;;;12.94;56.40
60228;BME280;46091;46.512;6.626;2022-12-29T10:36:49;96965.13;;;12.95;56.27
60228;BME280;46091;46.512;6.626;2022-12-29T10:39:00;96962.88;;;12.99;56.45
60228;BME280;46091;46.512;6.626;2022-12-29T10:41:13;96961.66;;;13.01;56.10
60228;BME280;46091;46.512;6.626;2022-12-29T10:43:24;96950.66;;;13.04;56.33
60228;BME280;46091;46.512;6.626;2022-12-29T10:45:29;96950.22;;;13.07;56.26
60228;BME280;46091;46.512;6.626;2022-12-29T10:47:38;96941.03;;;13.10;56.30
60228;BME280;46091;46.512;6.626;2022-12-29T10:49:43;96936.34;;;13.12;56.26
60228;BME280;46091;46.512;6.626;2022-12-29T10:51:48;96938.59;;;13.15;55.81
60228;BME280;46091;46.512;6.626;2022-12-29T10:53:57;96926.75;;;13.18;55.73
60228;BME280;46091;46.512;6.626;2022-12-29T10:56:09;96925.53;;;13.20;55.92
60228;BME280;46091;46.512;6.626;2022-12-29T10:58:15;96924.72;;;13.20;55.96
60228;BME280;46091;46.512;6.626;2022-12-29T11:00:20;96919.22;;;13.21;55.80
60228;BME280;46091;46.512;6.626;2022-12-29T11:02:43;96910.81;;;13.24;56.02
60228;BME280;46091;46.512;6.626;2022-12-29T11:04:55;96910.44;;;13.27;55.50
60228;BME280;46091;46.512;6.626;2022-12-29T11:07:01;96900.63;;;13.28;55.80
60228;BME280;46091;46.512;6.626;2022-12-29T11:09:10;96896.13;;;13.28;55.32
60228;BME280;46091;46.512;6.626;2022-12-29T11:11:24;96882.84;;;13.28;55.40
60228;BME280;46091;46.512;6.626;2022-12-29T11:13:29;96889.19;;;13.27;55.59
60228;BME280;46091;46.512;6.626;2022-12-29T11:15:40;96891.03;;;13.27;55.29
60228;BME280;46091;46.512;6.626;2022-12-29T11:17:45;96876.13;;;13.26;55.20
60228;BME280;46091;46.512;6.626;2022-12-29T11:19:48;96864.69;;;13.25;55.39
60228;BME280;46091;46.512;6.626;2022-12-29T11:21:52;96862.03;;;13.25;55.02
60228;BME280;46091;46.512;6.626;2022-12-29T11:23:57;96879.59;;;13.26;55.29
60228;BME280;46091;46.512;6.626;2022-12-29T11:26:20;96879.59;;;13.26;55.19
60228;BME280;46091;46.512;6.626;2022-12-29T11:28:25;96876.94;;;13.26;55.28
60228;BME280;46091;46.512;6.626;2022-12-29T11:30:32;96868.78;;;13.28;54.92
60228;BME280;46091;46.512;6.626;2022-12-29T11:32:35;96869.59;;;13.28;54.95
60228;BME280;46091;46.512;6.626;2022-12-29T11:34:37;96875.50;;;13.30;55.24
60228;BME280;46091;46.512;6.626;2022-12-29T11:36:40;96863.84;;;13.31;55.15
60228;BME280;46091;46.512;6.626;2022-12-29T11:38:47;96867.09;;;13.33;54.83
60228;BME280;46091;46.512;6.626;2022-12-29T11:40:51;96859.56;;;13.37;54.88
60228;BME280;46091;46.512;6.626;2022-12-29T11:42:57;96857.72;;;13.37;54.94
60228;BME280;46091;46.512;6.626;2022-12-29T11:45:05;96851.38;;;13.38;54.63
60228;BME280;46091;46.512;6.626;2022-12-29T11:47:21;96853.00;;;13.39;54.91
60228;BME280;46091;46.512;6.626;2022-12-29T11:49:26;96845.44;;;13.43;54.58
60228;BME280;46091;46.512;6.626;2022-12-29T11:51:32;96841.75;;;13.44;54.55
60228;BME280;46091;46.512;6.626;2022-12-29T11:53:39;96837.84;;;13.47;54.44
60228;BME280;46091;46.512;6.626;2022-12-29T11:55:51;96840.09;;;13.50;54.70
60228;BME280;46091;46.512;6.626;2022-12-29T11:57:58;96838.06;;;13.52;54.46
60228;BME280;46091;46.512;6.626;2022-12-29T12:00:14;96840.72;;;13.52;54.42
60228;BME280;46091;46.512;6.626;2022-12-29T12:02:39;96842.53;;;13.51;54.35
60228;BME280;46091;46.512;6.626;2022-12-29T12:04:45;96839.91;;;13.51;54.18
60228;BME280;46091;46.512;6.626;2022-12-29T12:06:50;96843.56;;;13.50;54.31
60228;BME280;46091;46.512;6.626;2022-12-29T12:09:03;96839.28;;;13.49;54.20
60228;BME280;46091;46.512;6.626;2022-12-29T12:11:12;96844.78;;;13.48;54.50
60228;BME280;46091;46.512;6.626;2022-12-29T12:13:22;96850.31;;;13.46;54.34
60228;BME280;46091;46.512;6.626;2022-12-29T12:15:31;96852.16;;;13.46;54.43
60228;BME280;46091;46.512;6.626;2022-12-29T12:17:50;96853.59;;;13.42;54.28
60228;BME280;46091;46.512;6.626;2022-12-29T12:19:59;96860.34;;;13.44;54.11
60228;BME280;46091;46.512;6.626;2022-12-29T12:22:12;96862.78;;;13.46;54.36
60228;BME280;46091;46.512;6.626;2022-12-29T12:24:35;96857.69;;;13.44;54.43
60228;BME280;46091;46.512;6.626;2022-12-29T12:26:52;96861.97;;;13.45;54.23
60228;BME280;46091;46.512;6.626;2022-12-29T12:29:03;96862.19;;;13.44;54.18
60228;BME280;46091;46.512;6.626;2022-12-29T12:31:17;96865.84;;;13.43;54.07
60228;BME280;46091;46.512;6.626;2022-12-29T12:33:25;96859.94;;;13.40;54.48
60228;BME280;46091;46.512;6.626;2022-12-29T12:35:42;96869.53;;;13.42;54.23
60228;BME280;46091;46.512;6.626;2022-12-29T12:38:03;96861.56;;;13.42;54.25
60228;BME280;46091;46.512;6.626;2022-12-29T12:40:55;96862.59;;;13.40;54.34
60228;BME280;46091;46.512;6.626;2022-12-29T12:43:13;96858.75;;;13.36;54.64
60228;BME280;46091;46.512;6.626;2022-12-29T12:45:35;96858.97;;;13.28;54.98
60228;BME280;46091;46.512;6.626;2022-12-29T12:47:54;96846.50;;;13.22;54.93
60228;BME280;46091;46.512;6.626;2022-12-29T12:50:30;96848.78;;;13.19;55.09
60228;BME280;46091;46.512;6.626;2022-12-29T12:52:41;96842.44;;;13.20;55.20
60228;BME280;46091;46.512;6.626;2022-12-29T12:55:02;96834.47;;;13.20;55.33
60228;BME280;46091;46.512;6.626;2022-12-29T12:57:17;96842.22;;;13.21;55.50
60228;BME280;46091;46.512;6.626;2022-12-29T12:59:32;96839.34;;;13.23;55.49
60228;BME280;46091;46.512;6.626;2022-12-29T13:01:47;96838.34;;;13.24;55.57
60228;BME280;46091;46.512;6.626;2022-12-29T13:04:05;96841.81;;;13.24;55.66
60228;BME280;46091;46.512;6.626;2022-12-29T13:06:18;96846.28;;;13.24;56.05
60228;BME280;46091;46.512;6.626;2022-12-29T13:08:36;96843.47;;;13.25;56.23
60228;BME280;46091;46.512;6.626;2022-12-29T13:10:44;96854.69;;;13.27;56.26
60228;BME280;46091;46.512;6.626;2022-12-29T13:13:02;96849.38;;;13.27;56.16
60228;BME280;46091;46.512;6.626;2022-12-29T13:15:14;96845.91;;;13.27;56.36
60228;BME280;46091;46.512;6.626;2022-12-29T13:17:25;96852.41;;;13.31;56.36
60228;BME280;46091;46.512;6.626;2022-12-29T13:19:37;96843.63;;;13.30;56.22
60228;BME280;46091;46.512;6.626;2022-12-29T13:21:54;96843.63;;;13.30;56.30
60228;BME280;46091;46.512;6.626;2022-12-29T13:24:15;96836.28;;;13.32;56.77
60228;BME280;46091;46.512;6.626;2022-12-29T13:26:24;96839.53;;;13.34;56.63
60228;BME280;46091;46.512;6.626;2022-12-29T13:28:35;96830.97;;;13.32;56.37
60228;BME280;46091;46.512;6.626;2022-12-29T13:30:44;96832.63;;;13.27;56.73
60228;BME280;46091;46.512;6.626;2022-12-29T13:32:58;96824.88;;;13.19;56.89
60228;BME280;46091;46.512;6.626;2022-12-29T13:35:16;96819.34;;;13.13;56.64
60228;BME280;46091;46.512;6.626;2022-12-29T13:37:26;96825.06;;;13.10;56.76
60228;BME280;46091;46.512;6.626;2022-12-29T13:39:33;96815.69;;;13.08;56.83
60228;BME280;46091;46.512;6.626;2022-12-29T13:41:40;96805.50;;;13.05;56.89
60228;BME280;46091;46.512;6.626;2022-12-29T13:43:47;96807.72;;;13.01;56.79
60228;BME280;46091;46.512;6.626;2022-12-29T13:45:58;96799.59;;;13.03;56.80
60228;BME280;46091;46.512;6.626;2022-12-29T13:48:06;96798.34;;;13.05;56.72
60228;BME280;46091;46.512;6.626;2022-12-29T13:50:16;96796.09;;;13.09;56.94
60228;BME280;46091;46.512;6.626;2022-12-29T13:52:24;96791.59;;;13.09;56.91
60228;BME280;46091;46.512;6.626;2022-12-29T13:54:35;96791.38;;;13.11;56.92
60228;BME280;46091;46.512;6.626;2022-12-29T13:56:48;96783.41;;;13.11;56.71
60228;BME280;46091;46.512;6.626;2022-12-29T13:58:56;96781.78;;;13.10;56.71
60228;BME280;46091;46.512;6.626;2022-12-29T14:01:04;96789.53;;;13.11;57.10
60228;BME280;46091;46.512;6.626;2022-12-29T14:03:24;96779.72;;;13.12;57.06
60228;BME280;46091;46.512;6.626;2022-12-29T14:05:32;96778.91;;;13.11;56.71
60228;BME280;46091;46.512;6.626;2022-12-29T14:07:37;96776.88;;;13.13;57.04
60228;BME280;46091;46.512;6.626;2022-12-29T14:09:45;96777.50;;;13.16;56.81
60228;BME280;46091;46.512;6.626;2022-12-29T14:11:48;96776.47;;;13.17;57.07
60228;BME280;46091;46.512;6.626;2022-12-29T14:13:51;96767.91;;;13.15;56.67
60228;BME280;46091;46.512;6.626;2022-12-29T14:15:55;96773.00;;;13.09;56.86
60228;BME280;46091;46.512;6.626;2022-12-29T14:18:09;96769.16;;;13.05;56.86
60228;BME280;46091;46.512;6.626;2022-12-29T14:20:21;96758.53;;;13.05;56.99
60228;BME280;46091;46.512;6.626;2022-12-29T14:22:26;96769.16;;;13.05;56.94
60228;BME280;46091;46.512;6.626;2022-12-29T14:24:44;96773.22;;;13.08;57.17
60228;BME280;46091;46.512;6.626;2022-12-29T14:26:47;96773.00;;;13.09;57.13
60228;BME280;46091;46.512;6.626;2022-12-29T14:28:50;96773.63;;;13.11;57.16
60228;BME280;46091;46.512;6.626;2022-12-29T14:30:54;96774.84;;;13.09;56.86
60228;BME280;46091;46.512;6.626;2022-12-29T14:33:03;96776.69;;;13.08;57.08
60228;BME280;46091;46.512;6.626;2022-12-29T14:35:42;96772.41;;;13.07;57.07
60228;BME280;46091;46.512;6.626;2022-12-29T14:37:45;96780.16;;;13.09;57.13
60228;BME280;46091;46.512;6.626;2022-12-29T14:39:47;96784.44;;;13.10;57.15
60228;BME280;46091;46.512;6.626;2022-12-29T14:41:59;96786.66;;;13.13;57.12
60228;BME280;46091;46.512;6.626;2022-12-29T14:44:18;96779.53;;;13.13;57.48
60228;BME280;46091;46.512;6.626;2022-12-29T14:46:22;96792.41;;;13.17;57.19
60228;BME280;46091;46.512;6.626;2022-12-29T14:48:38;96792.41;;;13.17;57.27
60228;BME280;46091;46.512;6.626;2022-12-29T14:50:43;96795.88;;;13.17;57.29
60228;BME280;46091;46.512;6.626;2022-12-29T14:52:48;96793.03;;;13.19;57.53
60228;BME280;46091;46.512;6.626;2022-12-29T14:55:28;96792.81;;;13.20;57.43
60228;BME280;46091;46.512;6.626;2022-12-29T14:57:35;96796.28;;;13.21;57.75
60228;BME280;46091;46.512;6.626;2022-12-29T14:59:39;96796.28;;;13.21;57.69
60228;BME280;46091;46.512;6.626;2022-12-29T15:01:45;96794.44;;;13.21;57.48
60228;BME280;46091;46.512;6.626;2022-12-29T15:03:51;96790.75;;;13.22;57.56
60228;BME280;46091;46.512;6.626;2022-12-29T15:05:59;96787.09;;;13.23;57.68
60228;BME280;46091;46.512;6.626;2022-12-29T15:08:11;96776.47;;;13.23;57.58
60228;BME280;46091;46.512;6.626;2022-12-29T15:10:17;96790.53;;;13.24;57.86
60228;BME280;46091;46.512;6.626;2022-12-29T15:12:31;96789.72;;;13.23;57.91
60228;BME280;46091;46.512;6.626;2022-12-29T15:14:38;96787.09;;;13.23;58.08
60228;BME280;46091;46.512;6.626;2022-12-29T15:16:42;96781.16;;;13.21;58.09
60228;BME280;46091;46.512;6.626;2022-12-29T15:18:44;96788.31;;;13.21;58.13
60228;BME280;46091;46.512;6.626;2022-12-29T15:20:50;96788.09;;;13.22;58.25
60228;BME280;46091;46.512;6.626;2022-12-29T15:22:57;96782.59;;;13.24;58.21
60228;BME280;46091;46.512;6.626;2022-12-29T15:25:00;96782.59;;;13.24;58.35
60228;BME280;46091;46.512;6.626;2022-12-29T15:27:04;96790.53;;;13.24;58.25
60228;BME280;46091;46.512;6.626;2022-12-29T15:29:28;96794.00;;;13.24;58.17
60228;BME280;46091;46.512;6.626;2022-12-29T15:31:32;96788.72;;;13.24;58.21
60228;BME280;46091;46.512;6.626;2022-12-29T15:33:38;96771.97;;;13.24;58.21
60228;BME280;46091;46.512;6.626;2022-12-29T15:35:42;96779.94;;;13.24;58.61
60228;BME280;46091;46.512;6.626;2022-12-29T15:37:44;96787.09;;;13.23;58.57
60228;BME280;46091;46.512;6.626;2022-12-29T15:39:50;96781.16;;;13.21;58.55
60228;BME280;46091;46.512;6.626;2022-12-29T15:41:55;96776.47;;;13.23;58.50
60228;BME280;46091;46.512;6.626;2022-12-29T15:44:10;96759.72;;;13.23;58.54
60228;BME280;46091;46.512;6.626;2022-12-29T15:46:16;96763.41;;;13.22;58.59
60228;BME280;46091;46.512;6.626;2022-12-29T15:48:21;96768.72;;;13.22;58.68
60228;BME280;46091;46.512;6.626;2022-12-29T15:50:27;96758.53;;;13.19;58.89
60228;BME280;46091;46.512;6.626;2022-12-29T15:52:32;96756.84;;;13.24;58.87
60228;BME280;46091;46.512;6.626;2022-12-29T15:54:36;96748.06;;;13.24;58.77
60228;BME280;46091;46.512;6.626;2022-12-29T15:56:41;96745.41;;;13.24;58.81
60228;BME280;46091;46.512;6.626;2022-12-29T15:58:45;96739.94;;;13.25;58.58
60228;BME280;46091;46.512;6.626;2022-12-29T16:00:51;96739.94;;;13.25;58.59
60228;BME280;46091;46.512;6.626;2022-12-29T16:02:57;96753.19;;;13.25;58.74
60228;BME280;46091;46.512;6.626;2022-12-29T16:05:01;96756.03;;;13.24;58.67
60228;BME280;46091;46.512;6.626;2022-12-29T16:07:25;96771.16;;;13.23;59.00
60228;BME280;46091;46.512;6.626;2022-12-29T16:09:30;96772.78;;;13.24;59.01
60228;BME280;46091;46.512;6.626;2022-12-29T16:11:35;96772.78;;;13.24;59.02
60228;BME280;46091;46.512;6.626;2022-12-29T16:13:41;96772.78;;;13.24;58.70
60228;BME280;46091;46.512;6.626;2022-12-29T16:15:45;96768.28;;;13.25;58.81
60228;BME280;46091;46.512;6.626;2022-12-29T16:17:50;96774.44;;;13.25;58.83
60228;BME280;46091;46.512;6.626;2022-12-29T16:19:58;96780.97;;;13.23;58.70
60228;BME280;46091;46.512;6.626;2022-12-29T16:22:03;96777.09;;;13.19;58.80
60228;BME280;46091;46.512;6.626;2022-12-29T16:24:13;96773.59;;;13.18;59.06
60228;BME280;46091;46.512;6.626;2022-12-29T16:26:19;96770.94;;;13.18;59.08
60228;BME280;46091;46.512;6.626;2022-12-29T16:28:23;96764.66;;;13.19;59.25
60228;BME280;46091;46.512;6.626;2022-12-29T16:30:30;96771.56;;;13.20;59.04
60228;BME280;46091;46.512;6.626;2022-12-29T16:32:35;96768.13;;;13.20;59.03
60228;BME280;46091;46.512;6.626;2022-12-29T16:34:47;96774.22;;;13.20;59.18
60228;BME280;46091;46.512;6.626;2022-12-29T16:36:55;96774.03;;;13.22;59.11
60228;BME280;46091;46.512;6.626;2022-12-29T16:39:16;96778.50;;;13.21;58.92
60228;BME280;46091;46.512;6.626;2022-12-29T16:41:29;96786.47;;;13.21;59.29
60228;BME280;46091;46.512;6.626;2022-12-29T16:43:34;96786.47;;;13.21;59.16
60228;BME280;46091;46.512;6.626;2022-12-29T16:46:19;96776.06;;;13.20;59.34
60228;BME280;46091;46.512;6.626;2022-12-29T16:48:23;96783.81;;;13.21;59.31
60228;BME280;46091;46.512;6.626;2022-12-29T16:50:28;96783.81;;;13.21;59.28
60228;BME280;46091;46.512;6.626;2022-12-29T16:52:33;96786.47;;;13.21;59.28
60228;BME280;46091;46.512;6.626;2022-12-29T16:54:38;96778.50;;;13.21;59.08
60228;BME280;46091;46.512;6.626;2022-12-29T16:56:43;96785.88;;;13.19;59.03
60228;BME280;46091;46.512;6.626;2022-12-29T16:58:47;96783.63;;;13.16;58.93
60228;BME280;46091;46.512;6.626;2022-12-29T17:00:54;96791.38;;;13.11;59.08
60228;BME280;46091;46.512;6.626;2022-12-29T17:02:59;96797.28;;;13.13;59.25
60228;BME280;46091;46.512;6.626;2022-12-29T17:05:04;96800.97;;;13.12;59.47
60228;BME280;46091;46.512;6.626;2022-12-29T17:07:13;96800.16;;;13.11;59.26
60228;BME280;46091;46.512;6.626;2022-12-29T17:09:20;96805.47;;;13.11;59.21
60228;BME280;46091;46.512;6.626;2022-12-29T17:11:27;96810.78;;;13.11;59.38
60228;BME280;46091;46.512;6.626;2022-12-29T17:13:56;96802.00;;;13.11;59.30
60228;BME280;46091;46.512;6.626;2022-12-29T17:15:58;96812.00;;;13.09;59.62
60228;BME280;46091;46.512;6.626;2022-12-29T17:18:03;96806.69;;;13.09;59.43
60228;BME280;46091;46.512;6.626;2022-12-29T17:20:15;96813.63;;;13.10;59.60
60228;BME280;46091;46.512;6.626;2022-12-29T17:22:21;96820.56;;;13.11;59.50
60228;BME280;46091;46.512;6.626;2022-12-29T17:24:25;96808.94;;;13.12;59.67
60228;BME280;46091;46.512;6.626;2022-12-29T17:26:28;96804.25;;;13.07;59.32
60228;BME280;46091;46.512;6.626;2022-12-29T17:28:31;96817.75;;;13.06;59.75
60228;BME280;46091;46.512;6.626;2022-12-29T17:30:34;96825.91;;;13.04;59.71
60228;BME280;46091;46.512;6.626;2022-12-29T17:32:38;96826.72;;;13.05;60.08
60228;BME280;46091;46.512;6.626;2022-12-29T17:34:42;96824.47;;;13.08;59.78
60228;BME280;46091;46.512;6.626;2022-12-29T17:36:45;96833.84;;;13.11;60.03
60228;BME280;46091;46.512;6.626;2022-12-29T17:38:48;96822.63;;;13.09;60.04
60228;BME280;46091;46.512;6.626;2022-12-29T17:40:51;96832.44;;;13.08;59.87
60228;BME280;46091;46.512;6.626;2022-12-29T17:42:55;96829.56;;;13.10;60.10
60228;BME280;46091;46.512;6.626;2022-12-29T17:45:00;96830.59;;;13.09;59.83
60228;BME280;46091;46.512;6.626;2022-12-29T17:47:02;96835.09;;;13.08;60.18
60228;BME280;46091;46.512;6.626;2022-12-29T17:49:09;96831.63;;;13.08;60.03
60228;BME280;46091;46.512;6.626;2022-12-29T17:51:14;96838.34;;;13.10;60.18
60228;BME280;46091;46.512;6.626;2022-12-29T17:53:19;96838.56;;;13.09;60.42
60228;BME280;46091;46.512;6.626;2022-12-29T17:55:23;96844.66;;;13.09;60.04
60228;BME280;46091;46.512;6.626;2022-12-29T17:57:35;96853.66;;;13.08;60.01
60228;BME280;46091;46.512;6.626;2022-12-29T17:59:38;96857.34;;;13.07;60.15
60228;BME280;46091;46.512;6.626;2022-12-29T18:01:41;96870.63;;;13.07;60.20
60228;BME280;46091;46.512;6.626;2022-12-29T18:03:46;96868.78;;;13.08;60.47
60228;BME280;46091;46.512;6.626;2022-12-29T18:05:50;96868.78;;;13.08;60.15
60228;BME280;46091;46.512;6.626;2022-12-29T18:07:56;96865.50;;;13.06;60.50
60228;BME280;46091;46.512;6.626;2022-12-29T18:09:59;96862.84;;;13.06;60.42
60228;BME280;46091;46.512;6.626;2022-12-29T18:12:02;96863.69;;;13.06;60.32
60228;BME280;46091;46.512;6.626;2022-12-29T18:14:05;96865.50;;;13.06;60.33
60228;BME280;46091;46.512;6.626;2022-12-29T18:16:09;96861.44;;;13.03;60.35
60228;BME280;46091;46.512;6.626;2022-12-29T18:18:14;96865.94;;;13.03;60.58
60228;BME280;46091;46.512;6.626;2022-12-29T18:20:17;96869.41;;;13.03;60.72
60228;BME280;46091;46.512;6.626;2022-12-29T18:22:21;96857.97;;;13.03;60.58
60228;BME280;46091;46.512;6.626;2022-12-29T18:24:25;96856.75;;;13.05;60.53
60228;BME280;46091;46.512;6.626;2022-12-29T18:26:29;96861.84;;;13.07;60.49
60228;BME280;46091;46.512;6.626;2022-12-29T18:28:36;96859.78;;;13.09;60.60
60228;BME280;46091;46.512;6.626;2022-12-29T18:30:38;96862.66;;;13.07;60.61
60228;BME280;46091;46.512;6.626;2022-12-29T18:32:41;96853.88;;;13.07;60.56
60228;BME280;46091;46.512;6.626;2022-12-29T18:34:44;96869.78;;;13.07;60.72
60228;BME280;46091;46.512;6.626;2022-12-29T18:36:47;96870.63;;;13.07;60.99
60228;BME280;46091;46.512;6.626;2022-12-29T18:38:50;96873.47;;;13.06;60.75
60228;BME280;46091;46.512;6.626;2022-12-29T18:40:57;96877.75;;;13.07;61.08
60228;BME280;46091;46.512;6.626;2022-12-29T18:43:00;96875.53;;;13.04;61.02
60228;BME280;46091;46.512;6.626;2022-12-29T18:45:12;96879.38;;;13.08;60.84
60228;BME280;46091;46.512;6.626;2022-12-29T18:47:17;96882.03;;;13.08;60.83
60228;BME280;46091;46.512;6.626;2022-12-29T18:49:19;96889.19;;;13.07;61.13
60228;BME280;46091;46.512;6.626;2022-12-29T18:51:23;96888.38;;;13.07;61.17
60228;BME280;46091;46.512;6.626;2022-12-29T18:53:26;96883.06;;;13.07;61.35
60228;BME280;46091;46.512;6.626;2022-12-29T18:55:29;96882.25;;;13.06;61.06
60228;BME280;46091;46.512;6.626;2022-12-29T18:57:33;96876.13;;;13.06;61.42
60228;BME280;46091;46.512;6.626;2022-12-29T18:59:36;96887.56;;;13.06;61.40
60228;BME280;46091;46.512;6.626;2022-12-29T19:01:39;96890.44;;;13.05;61.32
60228;BME280;46091;46.512;6.626;2022-12-29T19:03:42;96885.72;;;13.07;61.54
60228;BME280;46091;46.512;6.626;2022-12-29T19:05:46;96886.75;;;13.06;61.18
60228;BME280;46091;46.512;6.626;2022-12-29T19:07:50;96888.38;;;13.07;61.33
60228;BME280;46091;46.512;6.626;2022-12-29T19:09:53;96891.03;;;13.07;61.45
60228;BME280;46091;46.512;6.626;2022-12-29T19:11:56;96899.19;;;13.05;61.32
60228;BME280;46091;46.512;6.626;2022-12-29T19:14:00;96885.94;;;13.05;61.42
60228;BME280;46091;46.512;6.626;2022-12-29T19:16:07;96901.03;;;13.05;61.49
60228;BME280;46091;46.512;6.626;2022-12-29T19:18:17;96912.47;;;13.05;61.47
60228;BME280;46091;46.512;6.626;2022-12-29T19:20:41;96904.50;;;13.05;61.48
60228;BME280;46091;46.512;6.626;2022-12-29T19:22:44;96913.69;;;13.03;61.77
60228;BME280;46091;46.512;6.626;2022-12-29T19:24:47;96904.09;;;13.02;61.76
60228;BME280;46091;46.512;6.626;2022-12-29T19:26:55;96913.69;;;13.03;61.43
60228;BME280;46091;46.512;6.626;2022-12-29T19:28:59;96913.06;;;13.01;61.74
60228;BME280;46091;46.512;6.626;2022-12-29T19:31:02;96924.31;;;13.03;61.94
60228;BME280;46091;46.512;6.626;2022-12-29T19:33:05;96925.94;;;13.04;61.69
60228;BME280;46091;46.512;6.626;2022-12-29T19:35:10;96920.00;;;13.02;61.90
60228;BME280;46091;46.512;6.626;2022-12-29T19:37:13;96914.09;;;13.00;61.75
60228;BME280;46091;46.512;6.626;2022-12-29T19:39:16;96917.78;;;12.99;61.75
60228;BME280;46091;46.512;6.626;2022-12-29T19:41:19;96924.31;;;12.96;61.86
60228;BME280;46091;46.512;6.626;2022-12-29T19:43:22;96924.72;;;12.93;61.88
60228;BME280;46091;46.512;6.626;2022-12-29T19:45:26;96929.22;;;12.93;62.19
60228;BME280;46091;46.512;6.626;2022-12-29T19:47:29;96941.25;;;12.95;62.28
60228;BME280;46091;46.512;6.626;2022-12-29T19:49:33;96933.09;;;12.97;62.18
60228;BME280;46091;46.512;6.626;2022-12-29T19:51:36;96928.59;;;12.97;61.94
60228;BME280;46091;46.512;6.626;2022-12-29T19:53:40;96928.38;;;12.99;62.14
60228;BME280;46091;46.512;6.626;2022-12-29T19:55:43;96926.34;;;13.01;61.85
60228;BME280;46091;46.512;6.626;2022-12-29T19:57:46;96924.72;;;13.00;62.10
60228;BME280;46091;46.512;6.626;2022-12-29T19:59:49;96924.91;;;12.98;61.86
60228;BME280;46091;46.512;6.626;2022-12-29T20:01:53;96921.44;;;12.98;62.11
60228;BME280;46091;46.512;6.626;2022-12-29T20:03:56;96927.78;;;12.97;62.14
60228;BME280;46091;46.512;6.626;2022-12-29T20:06:00;96929.41;;;12.98;62.31
60228;BME280;46091;46.512;6.626;2022-12-29T20:08:02;96936.34;;;12.99;62.37
60228;BME280;46091;46.512;6.626;2022-12-29T20:10:06;96936.56;;;12.97;62.13
60228;BME280;46091;46.512;6.626;2022-12-29T20:12:09;96936.97;;;12.94;62.18
60228;BME280;46091;46.512;6.626;2022-12-29T20:14:13;96941.47;;;12.94;62.52
60228;BME280;46091;46.512;6.626;2022-12-29T20:16:17;96948.81;;;12.92;62.47
60228;BME280;46091;46.512;6.626;2022-12-29T20:18:21;96939.84;;;12.93;62.37
60228;BME280;46091;46.512;6.626;2022-12-29T20:20:32;96941.47;;;12.94;62.43
60228;BME280;46091;46.512;6.626;2022-12-29T20:22:35;96951.06;;;12.95;62.66
60228;BME280;46091;46.512;6.626;2022-12-29T20:24:38;96949.22;;;12.95;62.51
60228;BME280;46091;46.512;6.626;2022-12-29T20:26:50;96947.38;;;12.96;62.58
60228;BME280;46091;46.512;6.626;2022-12-29T20:28:55;96951.88;;;12.95;62.43
60228;BME280;46091;46.512;6.626;2022-12-29T20:31:00;96946.34;;;12.97;62.49
60228;BME280;46091;46.512;6.626;2022-12-29T20:33:03;96936.75;;;12.96;62.42
60228;BME280;46091;46.512;6.626;2022-12-29T20:35:11;96942.06;;;12.96;62.54
60228;BME280;46091;46.512;6.626;2022-12-29T20:37:14;96941.88;;;12.97;62.72
60228;BME280;46091;46.512;6.626;2022-12-29T20:39:18;96949.00;;;12.97;62.52
60228;BME280;46091;46.512;6.626;2022-12-29T20:41:21;96947.16;;;12.97;62.45
60228;BME280;46091;46.512;6.626;2022-12-29T20:43:24;96947.38;;;12.96;62.67
60228;BME280;46091;46.512;6.626;2022-12-29T20:45:27;96941.88;;;12.97;62.64
60228;BME280;46091;46.512;6.626;2022-12-29T20:47:30;96954.09;;;12.98;62.72
60228;BME280;46091;46.512;6.626;2022-12-29T20:49:33;96941.66;;;12.99;62.84
60228;BME280;46091;46.512;6.626;2022-12-29T20:51:38;96933.69;;;12.99;63.06
60228;BME280;46091;46.512;6.626;2022-12-29T20:54:03;96933.69;;;12.99;62.77
60228;BME280;46091;46.512;6.626;2022-12-29T20:56:08;96937.97;;;13.00;62.78
60228;BME280;46091;46.512;6.626;2022-12-29T20:58:12;96943.50;;;12.98;62.83
60228;BME280;46091;46.512;6.626;2022-12-29T21:00:25;96939.00;;;12.99;62.95
60228;BME280;46091;46.512;6.626;2022-12-29T21:02:30;96937.38;;;12.98;63.18
60228;BME280;46091;46.512;6.626;2022-12-29T21:04:33;96939.00;;;12.99;62.86
60228;BME280;46091;46.512;6.626;2022-12-29T21:06:58;96929.41;;;12.98;63.03
60228;BME280;46091;46.512;6.626;2022-12-29T21:09:00;96930.44;;;12.97;62.90
60228;BME280;46091;46.512;6.626;2022-12-29T21:11:04;96923.50;;;12.96;63.00